sensor_id;sensor_type;location;lat;lon;timestamp;pressure;altitude;pressure_sealevel;temperature;humidity
58373;BME280;44177;43.356;27.672;2022-07-21T00:01:23;98066.88;;;21.22;42.24
58373;BME280;44177;43.356;27.672;2022-07-21T00:03:49;98025.75;;;20.93;42.22
58373;BME280;44177;43.356;27.672;2022-07-21T00:06:14;98041.88;;;20.98;42.45
58373;BME280;44177;43.356;27.672;2022-07-21T00:08:40;98039.13;;;20.98;42.32
58373;BME280;44177;43.356;27.672;2022-07-21T00:11:05;98059.16;;;21.09;42.24
58373;BME280;44177;43.356;27.672;2022-07-21T00:13:31;98051.72;;;21.03;42.17
58373;BME280;44177;43.356;27.672;2022-07-21T00:15:56;98035.50;;;21.01;42.22
58373;BME280;44177;43.356;27.672;2022-07-21T00:18:23;98028.81;;;20.98;42.32
58373;BME280;44177;43.356;27.672;2022-07-21T00:20:49;98040.94;;;21.08;42.46
58373;BME280;44177;43.356;27.672;2022-07-21T00:23:15;98026.44;;;20.97;42.98
58373;BME280;44177;43.356;27.672;2022-07-21T00:25:40;98026.34;;;21.04;42.89
58373;BME280;44177;43.356;27.672;2022-07-21T00:28:06;98026.28;;;21.08;42.26
58373;BME280;44177;43.356;27.672;2022-07-21T00:30:33;98015.31;;;21.01;42.24
58373;BME280;44177;43.356;27.672;2022-07-21T00:32:59;98023.56;;;21.04;42.61
58373;BME280;44177;43.356;27.672;2022-07-21T00:35:26;98030.28;;;21.07;42.55
58373;BME280;44177;43.356;27.672;2022-07-21T00:37:51;98024.06;;;20.99;42.51
58373;BME280;44177;43.356;27.672;2022-07-21T00:40:17;98017.97;;;21.08;42.18
58373;BME280;44177;43.356;27.672;2022-07-21T00:42:43;98037.63;;;21.17;42.33
58373;BME280;44177;43.356;27.672;2022-07-21T00:45:09;98021.91;;;21.10;42.45
58373;BME280;44177;43.356;27.672;2022-07-21T00:47:35;98024.56;;;21.18;42.12
58373;BME280;44177;43.356;27.672;2022-07-21T00:50:05;98033.16;;;21.23;42.37
58373;BME280;44177;43.356;27.672;2022-07-21T00:52:31;98006.53;;;21.06;42.40
58373;BME280;44177;43.356;27.672;2022-07-21T00:54:57;98018.44;;;21.03;42.72
58373;BME280;44177;43.356;27.672;2022-07-21T00:57:22;98021.41;;;21.16;42.73
58373;BME280;44177;43.356;27.672;2022-07-21T00:59:48;98019.78;;;21.18;42.84
58373;BME280;44177;43.356;27.672;2022-07-21T01:02:14;98022.19;;;21.16;42.75
58373;BME280;44177;43.356;27.672;2022-07-21T01:04:40;97998.72;;;20.97;42.95
58373;BME280;44177;43.356;27.672;2022-07-21T01:07:06;98005.91;;;20.94;43.16
58373;BME280;44177;43.356;27.672;2022-07-21T01:09:33;98010.19;;;20.99;43.02
58373;BME280;44177;43.356;27.672;2022-07-21T01:11:59;98012.53;;;21.01;42.96
58373;BME280;44177;43.356;27.672;2022-07-21T01:14:25;98002.00;;;20.92;42.96
58373;BME280;44177;43.356;27.672;2022-07-21T01:16:51;97996.56;;;20.85;43.43
58373;BME280;44177;43.356;27.672;2022-07-21T01:19:17;97994.28;;;20.79;43.80
58373;BME280;44177;43.356;27.672;2022-07-21T01:21:45;98001.47;;;20.73;43.81
58373;BME280;44177;43.356;27.672;2022-07-21T01:24:11;97996.31;;;20.75;44.09
58373;BME280;44177;43.356;27.672;2022-07-21T01:26:41;97991.19;;;20.74;44.01
58373;BME280;44177;43.356;27.672;2022-07-21T01:29:07;98004.50;;;20.82;43.96
58373;BME280;44177;43.356;27.672;2022-07-21T01:31:35;98001.38;;;20.80;44.16
58373;BME280;44177;43.356;27.672;2022-07-21T01:34:01;97986.69;;;20.83;44.00
58373;BME280;44177;43.356;27.672;2022-07-21T01:36:26;98004.34;;;20.93;43.90
58373;BME280;44177;43.356;27.672;2022-07-21T01:38:52;97987.75;;;20.90;44.18
58373;BME280;44177;43.356;27.672;2022-07-21T01:41:35;97986.19;;;20.89;43.79
58373;BME280;44177;43.356;27.672;2022-07-21T01:44:05;97996.44;;;20.92;44.33
58373;BME280;44177;43.356;27.672;2022-07-21T01:46:35;98003.06;;;20.98;44.11
58373;BME280;44177;43.356;27.672;2022-07-21T01:49:01;97981.44;;;20.89;44.12
58373;BME280;44177;43.356;27.672;2022-07-21T01:51:26;97998.25;;;21.02;44.09
58373;BME280;44177;43.356;27.672;2022-07-21T01:53:52;97982.75;;;20.81;44.34
58373;BME280;44177;43.356;27.672;2022-07-21T01:56:20;97991.03;;;20.85;44.51
58373;BME280;44177;43.356;27.672;2022-07-21T01:58:46;97997.72;;;20.87;44.49
58373;BME280;44177;43.356;27.672;2022-07-21T02:01:12;97989.06;;;20.81;44.55
58373;BME280;44177;43.356;27.672;2022-07-21T02:03:38;97997.97;;;20.96;44.63
58373;BME280;44177;43.356;27.672;2022-07-21T02:06:05;97998.38;;;20.95;44.42
58373;BME280;44177;43.356;27.672;2022-07-21T02:08:31;97997.97;;;20.96;44.51
58373;BME280;44177;43.356;27.672;2022-07-21T02:10:57;97980.25;;;20.90;44.53
58373;BME280;44177;43.356;27.672;2022-07-21T02:13:23;97983.28;;;20.96;44.50
58373;BME280;44177;43.356;27.672;2022-07-21T02:15:48;97982.94;;;20.94;44.45
58373;BME280;44177;43.356;27.672;2022-07-21T02:18:14;98000.13;;;21.09;44.52
58373;BME280;44177;43.356;27.672;2022-07-21T02:20:39;97975.41;;;20.94;44.46
58373;BME280;44177;43.356;27.672;2022-07-21T02:23:05;97978.00;;;21.05;44.40
58373;BME280;44177;43.356;27.672;2022-07-21T02:25:30;97969.34;;;21.03;44.58
58373;BME280;44177;43.356;27.672;2022-07-21T02:27:56;97981.00;;;21.14;44.61
58373;BME280;44177;43.356;27.672;2022-07-21T02:30:21;97972.19;;;21.20;44.30
58373;BME280;44177;43.356;27.672;2022-07-21T02:32:47;97965.56;;;21.13;44.28
58373;BME280;44177;43.356;27.672;2022-07-21T02:35:12;97977.47;;;21.14;44.48
58373;BME280;44177;43.356;27.672;2022-07-21T02:37:38;97960.88;;;21.10;44.54
58373;BME280;44177;43.356;27.672;2022-07-21T02:40:04;97960.09;;;21.10;44.64
58373;BME280;44177;43.356;27.672;2022-07-21T02:42:30;97952.63;;;21.07;44.35
58373;BME280;44177;43.356;27.672;2022-07-21T02:44:56;97966.78;;;21.12;44.18
58373;BME280;44177;43.356;27.672;2022-07-21T02:47:21;97961.22;;;21.12;44.21
58373;BME280;44177;43.356;27.672;2022-07-21T02:49:47;97962.78;;;21.13;44.30
58373;BME280;44177;43.356;27.672;2022-07-21T02:52:13;97967.50;;;21.17;44.59
58373;BME280;44177;43.356;27.672;2022-07-21T02:54:39;97972.19;;;21.20;44.50
58373;BME280;44177;43.356;27.672;2022-07-21T02:57:04;97968.28;;;21.17;44.19
58373;BME280;44177;43.356;27.672;2022-07-21T02:59:30;97953.28;;;21.14;44.21
58373;BME280;44177;43.356;27.672;2022-07-21T03:01:55;97980.75;;;21.29;44.23
58373;BME280;44177;43.356;27.672;2022-07-21T03:04:21;97976.84;;;21.26;44.02
58373;BME280;44177;43.356;27.672;2022-07-21T03:06:46;97975.19;;;21.29;44.19
58373;BME280;44177;43.356;27.672;2022-07-21T03:09:12;97974.72;;;21.34;44.17
58373;BME280;44177;43.356;27.672;2022-07-21T03:11:37;97982.13;;;21.41;43.55
58373;BME280;44177;43.356;27.672;2022-07-21T03:14:03;97991.94;;;21.45;43.78
58373;BME280;44177;43.356;27.672;2022-07-21T03:16:28;97992.50;;;21.37;44.05
58373;BME280;44177;43.356;27.672;2022-07-21T03:18:54;97996.34;;;21.43;44.05
58373;BME280;44177;43.356;27.672;2022-07-21T03:21:20;97984.97;;;21.37;43.95
58373;BME280;44177;43.356;27.672;2022-07-21T03:23:45;97975.94;;;21.33;44.32
58373;BME280;44177;43.356;27.672;2022-07-21T03:26:12;98005.59;;;21.56;44.19
58373;BME280;44177;43.356;27.672;2022-07-21T03:28:39;97992.81;;;21.42;44.57
58373;BME280;44177;43.356;27.672;2022-07-21T03:31:05;97984.53;;;21.39;44.66
58373;BME280;44177;43.356;27.672;2022-07-21T03:33:31;97991.56;;;21.43;43.98
58373;BME280;44177;43.356;27.672;2022-07-21T03:35:56;97984.13;;;21.40;44.36
58373;BME280;44177;43.356;27.672;2022-07-21T03:38:24;98005.59;;;21.56;44.38
58373;BME280;44177;43.356;27.672;2022-07-21T03:40:50;97987.47;;;21.52;44.03
58373;BME280;44177;43.356;27.672;2022-07-21T03:43:16;98000.25;;;21.69;44.08
58373;BME280;44177;43.356;27.672;2022-07-21T03:45:42;97988.59;;;21.58;43.71
58373;BME280;44177;43.356;27.672;2022-07-21T03:48:08;98002.59;;;21.71;43.96
58373;BME280;44177;43.356;27.672;2022-07-21T03:50:38;98007.72;;;21.72;44.54
58373;BME280;44177;43.356;27.672;2022-07-21T03:53:05;97996.41;;;21.63;44.07
58373;BME280;44177;43.356;27.672;2022-07-21T03:55:31;97977.94;;;21.53;44.47
58373;BME280;44177;43.356;27.672;2022-07-21T03:58:02;98005.56;;;21.60;44.19
58373;BME280;44177;43.356;27.672;2022-07-21T04:02:59;97987.81;;;21.54;44.77
58373;BME280;44177;43.356;27.672;2022-07-21T04:05:25;98007.44;;;21.67;44.85
58373;BME280;44177;43.356;27.672;2022-07-21T04:07:52;98019.91;;;21.79;44.88
58373;BME280;44177;43.356;27.672;2022-07-21T04:10:24;98001.03;;;21.70;44.82
58373;BME280;44177;43.356;27.672;2022-07-21T04:12:52;97995.00;;;21.75;44.97
58373;BME280;44177;43.356;27.672;2022-07-21T04:15:18;98016.31;;;21.98;44.95
58373;BME280;44177;43.356;27.672;2022-07-21T04:17:44;98014.78;;;21.97;45.06
58373;BME280;44177;43.356;27.672;2022-07-21T04:20:11;97989.22;;;21.86;45.14
58373;BME280;44177;43.356;27.672;2022-07-21T04:22:37;97964.00;;;21.76;44.87
58373;BME280;44177;43.356;27.672;2022-07-21T04:25:04;98014.84;;;22.14;44.65
58373;BME280;44177;43.356;27.672;2022-07-21T04:27:30;98021.78;;;22.22;45.06
58373;BME280;44177;43.356;27.672;2022-07-21T04:29:56;97993.31;;;22.18;44.84
58373;BME280;44177;43.356;27.672;2022-07-21T04:32:22;98025.56;;;22.52;44.77
58373;BME280;44177;43.356;27.672;2022-07-21T04:34:48;98007.13;;;22.42;44.64
58373;BME280;44177;43.356;27.672;2022-07-21T04:37:13;98020.41;;;22.50;44.38
58373;BME280;44177;43.356;27.672;2022-07-21T04:39:39;98011.66;;;22.52;44.51
58373;BME280;44177;43.356;27.672;2022-07-21T04:42:04;98014.59;;;22.61;44.21
58373;BME280;44177;43.356;27.672;2022-07-21T04:44:30;98029.22;;;22.82;44.66
58373;BME280;44177;43.356;27.672;2022-07-21T04:46:56;98010.59;;;22.62;44.96
58373;BME280;44177;43.356;27.672;2022-07-21T04:49:21;98008.47;;;22.70;44.36
58373;BME280;44177;43.356;27.672;2022-07-21T04:51:47;98014.97;;;22.80;44.57
58373;BME280;44177;43.356;27.672;2022-07-21T04:54:12;98021.06;;;22.91;45.47
58373;BME280;44177;43.356;27.672;2022-07-21T04:56:40;98036.72;;;23.18;45.22
58373;BME280;44177;43.356;27.672;2022-07-21T04:59:06;98025.66;;;23.14;45.44
58373;BME280;44177;43.356;27.672;2022-07-21T05:01:32;98030.97;;;23.25;44.65
58373;BME280;44177;43.356;27.672;2022-07-21T05:03:57;98022.88;;;23.31;44.40
58373;BME280;44177;43.356;27.672;2022-07-21T05:06:23;98033.41;;;23.40;44.65
58373;BME280;44177;43.356;27.672;2022-07-21T05:08:48;98048.91;;;23.70;44.19
58373;BME280;44177;43.356;27.672;2022-07-21T05:11:14;98054.63;;;23.79;43.81
58373;BME280;44177;43.356;27.672;2022-07-21T05:13:39;98040.03;;;23.75;44.41
58373;BME280;44177;43.356;27.672;2022-07-21T05:16:05;98048.00;;;23.90;43.74
58373;BME280;44177;43.356;27.672;2022-07-21T05:18:31;98040.59;;;23.83;43.46
58373;BME280;44177;43.356;27.672;2022-07-21T05:20:56;98038.00;;;23.76;43.54
58373;BME280;44177;43.356;27.672;2022-07-21T05:23:22;98061.09;;;24.06;44.02
58373;BME280;44177;43.356;27.672;2022-07-21T05:25:47;98064.50;;;24.26;43.49
58373;BME280;44177;43.356;27.672;2022-07-21T05:28:12;98058.69;;;24.21;43.05
58373;BME280;44177;43.356;27.672;2022-07-21T05:30:38;98066.03;;;24.27;43.29
58373;BME280;44177;43.356;27.672;2022-07-21T05:33:03;98049.09;;;24.35;43.86
58373;BME280;44177;43.356;27.672;2022-07-21T05:35:29;98061.19;;;24.57;43.19
58373;BME280;44177;43.356;27.672;2022-07-21T05:37:55;98079.50;;;24.84;42.92
58373;BME280;44177;43.356;27.672;2022-07-21T05:40:21;98057.31;;;24.81;42.27
58373;BME280;44177;43.356;27.672;2022-07-21T05:42:46;98048.81;;;24.97;43.37
58373;BME280;44177;43.356;27.672;2022-07-21T05:45:12;98078.81;;;25.32;43.32
58373;BME280;44177;43.356;27.672;2022-07-21T05:47:38;98065.19;;;25.34;42.15
58373;BME280;44177;43.356;27.672;2022-07-21T05:50:05;98073.78;;;25.52;41.96
58373;BME280;44177;43.356;27.672;2022-07-21T05:52:30;98070.72;;;25.60;41.84
58373;BME280;44177;43.356;27.672;2022-07-21T05:54:56;98073.41;;;25.85;42.85
58373;BME280;44177;43.356;27.672;2022-07-21T05:57:21;98068.56;;;25.99;41.48
58373;BME280;44177;43.356;27.672;2022-07-21T05:59:47;98073.47;;;25.95;41.22
58373;BME280;44177;43.356;27.672;2022-07-21T06:02:12;98036.38;;;25.94;40.63
58373;BME280;44177;43.356;27.672;2022-07-21T06:04:38;98067.66;;;26.46;40.70
58373;BME280;44177;43.356;27.672;2022-07-21T06:07:03;98067.09;;;26.61;40.94
58373;BME280;44177;43.356;27.672;2022-07-21T06:09:29;98070.81;;;26.89;39.63
58373;BME280;44177;43.356;27.672;2022-07-21T06:11:55;98067.03;;;27.24;39.12
58373;BME280;44177;43.356;27.672;2022-07-21T06:14:21;98061.50;;;27.61;38.52
58373;BME280;44177;43.356;27.672;2022-07-21T06:16:46;98048.72;;;27.97;37.69
58373;BME280;44177;43.356;27.672;2022-07-21T06:19:12;98058.66;;;28.26;37.13
58373;BME280;44177;43.356;27.672;2022-07-21T06:21:37;98067.13;;;28.60;36.57
58373;BME280;44177;43.356;27.672;2022-07-21T06:24:03;98062.91;;;28.64;36.09
58373;BME280;44177;43.356;27.672;2022-07-21T06:26:28;98041.78;;;28.45;35.44
58373;BME280;44177;43.356;27.672;2022-07-21T06:28:54;98067.63;;;28.58;35.74
58373;BME280;44177;43.356;27.672;2022-07-21T06:31:20;98069.50;;;28.52;35.70
58373;BME280;44177;43.356;27.672;2022-07-21T06:33:45;98076.63;;;28.72;36.29
58373;BME280;44177;43.356;27.672;2022-07-21T06:36:11;98056.69;;;28.70;35.93
58373;BME280;44177;43.356;27.672;2022-07-21T06:38:36;98074.00;;;28.59;35.37
58373;BME280;44177;43.356;27.672;2022-07-21T06:41:02;98064.00;;;28.76;35.58
58373;BME280;44177;43.356;27.672;2022-07-21T06:43:28;98082.34;;;29.20;35.61
58373;BME280;44177;43.356;27.672;2022-07-21T06:45:53;98086.31;;;29.38;35.15
58373;BME280;44177;43.356;27.672;2022-07-21T06:48:19;98079.44;;;29.63;35.34
58373;BME280;44177;43.356;27.672;2022-07-21T06:50:47;98052.69;;;29.68;34.74
58373;BME280;44177;43.356;27.672;2022-07-21T06:53:13;98066.59;;;29.86;33.74
58373;BME280;44177;43.356;27.672;2022-07-21T06:55:38;98065.88;;;30.01;33.46
58373;BME280;44177;43.356;27.672;2022-07-21T06:58:14;98057.44;;;30.16;33.12
58373;BME280;44177;43.356;27.672;2022-07-21T07:00:41;98074.53;;;30.42;32.74
58373;BME280;44177;43.356;27.672;2022-07-21T07:03:07;98059.69;;;30.27;32.59
58373;BME280;44177;43.356;27.672;2022-07-21T07:05:33;98058.22;;;30.16;32.46
58373;BME280;44177;43.356;27.672;2022-07-21T07:07:58;98057.44;;;30.31;32.67
58373;BME280;44177;43.356;27.672;2022-07-21T07:10:24;98062.28;;;30.45;32.51
58373;BME280;44177;43.356;27.672;2022-07-21T07:12:49;98041.53;;;30.28;32.27
58373;BME280;44177;43.356;27.672;2022-07-21T07:15:15;98048.34;;;30.66;32.51
58373;BME280;44177;43.356;27.672;2022-07-21T07:17:40;98052.00;;;30.72;31.76
58373;BME280;44177;43.356;27.672;2022-07-21T07:20:07;98061.06;;;30.61;32.06
58373;BME280;44177;43.356;27.672;2022-07-21T07:22:33;98063.44;;;30.83;31.41
58373;BME280;44177;43.356;27.672;2022-07-21T07:24:58;98065.72;;;31.00;31.27
58373;BME280;44177;43.356;27.672;2022-07-21T07:27:24;98048.91;;;30.70;31.54
58373;BME280;44177;43.356;27.672;2022-07-21T07:29:49;98050.81;;;30.79;32.14
58373;BME280;44177;43.356;27.672;2022-07-21T07:32:15;98063.31;;;30.93;31.07
58373;BME280;44177;43.356;27.672;2022-07-21T07:34:40;98064.09;;;30.93;31.85
58373;BME280;44177;43.356;27.672;2022-07-21T07:37:06;98056.00;;;31.16;31.21
58373;BME280;44177;43.356;27.672;2022-07-21T07:39:32;98037.75;;;31.11;31.17
58373;BME280;44177;43.356;27.672;2022-07-21T07:41:58;98050.16;;;31.19;31.40
58373;BME280;44177;43.356;27.672;2022-07-21T07:44:23;98062.56;;;31.28;30.98
58373;BME280;44177;43.356;27.672;2022-07-21T07:46:49;98054.75;;;31.38;31.14
58373;BME280;44177;43.356;27.672;2022-07-21T07:49:14;98061.84;;;31.54;30.78
58373;BME280;44177;43.356;27.672;2022-07-21T07:51:40;98052.41;;;31.57;29.90
58373;BME280;44177;43.356;27.672;2022-07-21T07:54:05;98058.94;;;31.89;30.56
58373;BME280;44177;43.356;27.672;2022-07-21T07:56:31;98059.97;;;31.86;29.91
58373;BME280;44177;43.356;27.672;2022-07-21T07:58:57;98058.13;;;32.09;30.11
58373;BME280;44177;43.356;27.672;2022-07-21T08:01:22;98055.22;;;32.24;30.52
58373;BME280;44177;43.356;27.672;2022-07-21T08:03:48;98058.59;;;32.28;29.45
58373;BME280;44177;43.356;27.672;2022-07-21T08:06:13;98051.06;;;32.20;29.38
58373;BME280;44177;43.356;27.672;2022-07-21T08:08:39;98055.78;;;32.28;29.67
58373;BME280;44177;43.356;27.672;2022-07-21T08:11:04;98050.69;;;32.33;29.95
58373;BME280;44177;43.356;27.672;2022-07-21T08:13:30;98058.47;;;32.43;29.59
58373;BME280;44177;43.356;27.672;2022-07-21T08:15:55;98045.00;;;32.59;29.29
58373;BME280;44177;43.356;27.672;2022-07-21T08:18:21;98064.00;;;32.64;29.11
58373;BME280;44177;43.356;27.672;2022-07-21T08:20:47;98045.56;;;32.31;30.01
58373;BME280;44177;43.356;27.672;2022-07-21T08:23:13;98055.75;;;32.55;29.02
58373;BME280;44177;43.356;27.672;2022-07-21T08:25:40;98051.00;;;32.72;29.44
58373;BME280;44177;43.356;27.672;2022-07-21T08:28:06;98071.09;;;32.80;28.83
58373;BME280;44177;43.356;27.672;2022-07-21T08:30:31;98066.88;;;32.70;28.78
58373;BME280;44177;43.356;27.672;2022-07-21T08:32:58;98069.44;;;32.68;29.16
58373;BME280;44177;43.356;27.672;2022-07-21T08:35:25;98027.97;;;32.48;27.88
58373;BME280;44177;43.356;27.672;2022-07-21T08:37:56;98070.34;;;32.53;28.46
58373;BME280;44177;43.356;27.672;2022-07-21T08:40:26;98061.94;;;32.59;28.91
58373;BME280;44177;43.356;27.672;2022-07-21T08:42:53;98070.41;;;32.59;28.42
58373;BME280;44177;43.356;27.672;2022-07-21T08:45:19;98078.47;;;32.72;28.59
58373;BME280;44177;43.356;27.672;2022-07-21T08:47:44;98068.78;;;32.79;28.78
58373;BME280;44177;43.356;27.672;2022-07-21T08:50:10;98052.28;;;33.09;29.26
58373;BME280;44177;43.356;27.672;2022-07-21T08:52:36;98075.53;;;33.30;28.20
58373;BME280;44177;43.356;27.672;2022-07-21T08:55:02;98074.78;;;33.35;28.13
58373;BME280;44177;43.356;27.672;2022-07-21T08:57:28;98056.03;;;33.32;28.52
58373;BME280;44177;43.356;27.672;2022-07-21T08:59:53;98057.91;;;33.47;27.90
58373;BME280;44177;43.356;27.672;2022-07-21T09:02:30;98046.63;;;33.58;26.54
58373;BME280;44177;43.356;27.672;2022-07-21T09:04:56;98044.63;;;33.81;26.76
58373;BME280;44177;43.356;27.672;2022-07-21T09:07:22;98059.38;;;34.03;27.17
58373;BME280;44177;43.356;27.672;2022-07-21T09:09:57;98065.31;;;34.05;26.95
58373;BME280;44177;43.356;27.672;2022-07-21T09:12:24;98056.53;;;33.85;26.49
58373;BME280;44177;43.356;27.672;2022-07-21T09:14:49;98058.88;;;33.32;27.59
58373;BME280;44177;43.356;27.672;2022-07-21T09:17:16;98051.25;;;33.61;28.57
58373;BME280;44177;43.356;27.672;2022-07-21T09:19:44;98064.50;;;33.98;27.02
58373;BME280;44177;43.356;27.672;2022-07-21T09:22:17;98057.09;;;34.18;26.99
58373;BME280;44177;43.356;27.672;2022-07-21T09:24:51;98046.81;;;34.32;26.51
58373;BME280;44177;43.356;27.672;2022-07-21T09:27:21;98050.97;;;34.59;27.09
58373;BME280;44177;43.356;27.672;2022-07-21T09:29:57;98064.84;;;34.57;26.16
58373;BME280;44177;43.356;27.672;2022-07-21T09:32:26;98069.72;;;34.40;25.86
58373;BME280;44177;43.356;27.672;2022-07-21T09:34:53;98062.25;;;34.31;26.90
58373;BME280;44177;43.356;27.672;2022-07-21T09:37:20;98038.09;;;34.58;26.78
58373;BME280;44177;43.356;27.672;2022-07-21T09:40:05;98057.88;;;34.87;25.93
58373;BME280;44177;43.356;27.672;2022-07-21T09:42:42;98054.53;;;34.77;26.43
58373;BME280;44177;43.356;27.672;2022-07-21T09:45:13;98042.97;;;34.63;26.37
58373;BME280;44177;43.356;27.672;2022-07-21T09:47:40;98063.28;;;34.79;26.71
58373;BME280;44177;43.356;27.672;2022-07-21T09:50:07;98061.75;;;34.95;26.16
58373;BME280;44177;43.356;27.672;2022-07-21T09:52:36;98038.31;;;34.89;26.09
58373;BME280;44177;43.356;27.672;2022-07-21T09:57:29;98035.94;;;35.10;25.31
58373;BME280;44177;43.356;27.672;2022-07-21T09:59:56;98046.81;;;34.83;24.96
58373;BME280;44177;43.356;27.672;2022-07-21T10:02:29;98058.41;;;34.68;25.91
58373;BME280;44177;43.356;27.672;2022-07-21T10:05:18;98050.41;;;34.84;25.94
58373;BME280;44177;43.356;27.672;2022-07-21T10:07:47;98046.81;;;34.72;24.40
58373;BME280;44177;43.356;27.672;2022-07-21T10:10:14;98034.22;;;34.50;27.44
58373;BME280;44177;43.356;27.672;2022-07-21T10:12:40;98056.09;;;34.89;27.93
58373;BME280;44177;43.356;27.672;2022-07-21T10:15:06;98029.34;;;34.45;26.97
58373;BME280;44177;43.356;27.672;2022-07-21T10:17:31;98034.44;;;34.29;26.27
58373;BME280;44177;43.356;27.672;2022-07-21T10:20:16;98055.59;;;34.51;26.28
58373;BME280;44177;43.356;27.672;2022-07-21T10:23:03;98058.41;;;34.74;26.17
58373;BME280;44177;43.356;27.672;2022-07-21T10:25:31;98053.53;;;34.91;26.14
58373;BME280;44177;43.356;27.672;2022-07-21T10:30:41;98047.59;;;34.95;24.70
58373;BME280;44177;43.356;27.672;2022-07-21T10:33:07;98046.00;;;35.11;25.92
58373;BME280;44177;43.356;27.672;2022-07-21T10:35:32;98040.59;;;35.13;26.21
58373;BME280;44177;43.356;27.672;2022-07-21T10:38:02;98044.06;;;35.53;25.72
58373;BME280;44177;43.356;27.672;2022-07-21T10:47:58;98040.00;;;35.32;25.33
58373;BME280;44177;43.356;27.672;2022-07-21T10:50:32;98037.56;;;35.64;25.47
58373;BME280;44177;43.356;27.672;2022-07-21T10:53:07;98037.00;;;35.71;24.84
58373;BME280;44177;43.356;27.672;2022-07-21T10:55:37;98015.19;;;35.55;24.84
58373;BME280;44177;43.356;27.672;2022-07-21T10:58:21;98029.72;;;35.29;25.17
58373;BME280;44177;43.356;27.672;2022-07-21T11:03:21;98036.31;;;35.60;25.35
58373;BME280;44177;43.356;27.672;2022-07-21T11:08:51;98034.34;;;35.85;23.87
58373;BME280;44177;43.356;27.672;2022-07-21T11:11:18;98032.03;;;35.95;24.20
58373;BME280;44177;43.356;27.672;2022-07-21T11:13:59;98026.94;;;35.76;24.50
58373;BME280;44177;43.356;27.672;2022-07-21T11:19:06;98019.97;;;35.77;24.16
58373;BME280;44177;43.356;27.672;2022-07-21T11:21:31;98026.00;;;35.56;24.02
58373;BME280;44177;43.356;27.672;2022-07-21T11:23:57;98024.25;;;35.48;24.04
58373;BME280;44177;43.356;27.672;2022-07-21T11:26:26;98029.41;;;35.38;24.25
58373;BME280;44177;43.356;27.672;2022-07-21T11:29:05;98012.72;;;35.17;24.91
58373;BME280;44177;43.356;27.672;2022-07-21T11:31:31;98034.19;;;35.66;25.19
58373;BME280;44177;43.356;27.672;2022-07-21T11:33:57;98030.38;;;35.57;23.91
58373;BME280;44177;43.356;27.672;2022-07-21T11:36:25;98033.13;;;35.75;24.73
58373;BME280;44177;43.356;27.672;2022-07-21T11:39:17;98032.59;;;35.76;24.29
58373;BME280;44177;43.356;27.672;2022-07-21T11:41:44;98041.75;;;35.52;24.25
58373;BME280;44177;43.356;27.672;2022-07-21T11:44:10;98009.47;;;34.79;24.75
58373;BME280;44177;43.356;27.672;2022-07-21T11:46:50;98027.03;;;34.60;25.11
58373;BME280;44177;43.356;27.672;2022-07-21T11:49:16;98021.31;;;34.94;24.99
58373;BME280;44177;43.356;27.672;2022-07-21T11:51:59;98023.13;;;34.63;24.42
58373;BME280;44177;43.356;27.672;2022-07-21T11:54:33;98032.91;;;34.74;25.60
58373;BME280;44177;43.356;27.672;2022-07-21T11:57:01;98034.16;;;33.93;25.34
58373;BME280;44177;43.356;27.672;2022-07-21T11:59:27;98019.56;;;33.40;26.03
58373;BME280;44177;43.356;27.672;2022-07-21T12:01:59;98040.06;;;33.29;27.09
58373;BME280;44177;43.356;27.672;2022-07-21T12:04:36;98022.91;;;32.95;26.65
58373;BME280;44177;43.356;27.672;2022-07-21T12:07:04;98040.94;;;32.98;27.18
58373;BME280;44177;43.356;27.672;2022-07-21T12:09:30;98039.66;;;33.04;28.06
58373;BME280;44177;43.356;27.672;2022-07-21T12:11:56;98028.78;;;32.86;27.07
58373;BME280;44177;43.356;27.672;2022-07-21T12:14:48;98026.38;;;33.11;27.72
58373;BME280;44177;43.356;27.672;2022-07-21T12:17:17;98034.00;;;33.04;26.95
58373;BME280;44177;43.356;27.672;2022-07-21T12:19:44;98018.41;;;32.71;27.13
58373;BME280;44177;43.356;27.672;2022-07-21T12:22:10;98032.25;;;32.69;28.58
58373;BME280;44177;43.356;27.672;2022-07-21T12:24:51;98042.44;;;32.61;28.25
58373;BME280;44177;43.356;27.672;2022-07-21T12:27:17;98031.44;;;32.63;28.11
58373;BME280;44177;43.356;27.672;2022-07-21T12:29:43;98021.88;;;32.55;27.91
58373;BME280;44177;43.356;27.672;2022-07-21T12:32:09;98019.00;;;32.49;28.16
58373;BME280;44177;43.356;27.672;2022-07-21T12:34:50;98031.31;;;32.20;27.92
58373;BME280;44177;43.356;27.672;2022-07-21T12:37:17;98023.22;;;32.33;28.11
58373;BME280;44177;43.356;27.672;2022-07-21T12:39:42;98021.91;;;32.28;27.95
58373;BME280;44177;43.356;27.672;2022-07-21T12:42:30;98031.44;;;32.63;27.99
58373;BME280;44177;43.356;27.672;2022-07-21T12:44:57;98016.47;;;32.57;27.34
58373;BME280;44177;43.356;27.672;2022-07-21T12:47:22;98032.59;;;32.83;27.54
58373;BME280;44177;43.356;27.672;2022-07-21T12:49:58;98027.56;;;32.98;26.91
58373;BME280;44177;43.356;27.672;2022-07-21T12:52:25;98003.97;;;32.64;26.67
58373;BME280;44177;43.356;27.672;2022-07-21T12:54:52;98027.59;;;32.34;27.31
58373;BME280;44177;43.356;27.672;2022-07-21T12:57:18;98018.91;;;32.11;28.16
58373;BME280;44177;43.356;27.672;2022-07-21T12:59:43;98025.78;;;32.63;28.14
58373;BME280;44177;43.356;27.672;2022-07-21T13:02:09;98033.59;;;33.23;27.61
58373;BME280;44177;43.356;27.672;2022-07-21T13:04:34;98023.41;;;33.31;26.76
58373;BME280;44177;43.356;27.672;2022-07-21T13:07:00;98018.72;;;33.28;31.67
58373;BME280;44177;43.356;27.672;2022-07-21T13:09:25;98010.53;;;32.49;33.54
58373;BME280;44177;43.356;27.672;2022-07-21T13:11:50;98020.22;;;32.42;33.38
58373;BME280;44177;43.356;27.672;2022-07-21T13:14:16;98015.22;;;32.26;34.14